Terminal Aerodrome Forecast
Issued by NWS Twin Cities, MN

Home | Current Version | Previous Version | Graphics & Text | Print | Product List | Glossary On
Versions: 1 2 3 4 5 6 7 8 9 10 11 12 13 14 15
851
FTUS43 KMPX 260541
TAFSTC
TAF
KSTC 260541Z 2606/2706 14005KT P6SM BKN060
     FM261600 20007KT P6SM SCT060 SCT150
     FM262000 25010KT P6SM SKC
     FM270100 27005KT P6SM SKC=

USA.gov is the U.S. government's official web portal to all federal, state and local government web resources and services.